Time;durP1;ratioP1;P1;durP2;ratioP2;P2;SDS_P1;SDS_P2;PMS_P1;PMS_P2;Temp;Humidity;BMP_temperature;BMP_pressure;BME280_temperature;BME280_humidity;BME280_pressure;Samples;Min_cycle;Max_cycle;Signal;HPM_P1;HPM_P2
2022/11/21 00:00:29;;;;;;;0.57;0.57;;;6.60;85.50;;;;;;5033326;28;20033;-63
2022/11/21 00:02:58;;;;;;;2.58;0.80;;;6.60;85.50;;;;;;5031902;28;20060;-63
2022/11/21 00:05:24;;;;;;;1.30;0.60;;;6.50;85.50;;;;;;5035750;28;20432;-62
2022/11/21 00:07:50;;;;;;;2.25;0.80;;;6.60;85.70;;;;;;5035453;28;20030;-62
2022/11/21 00:10:16;;;;;;;0.73;0.50;;;6.60;85.80;;;;;;5035103;28;20021;-63
2022/11/21 00:12:41;;;;;;;0.65;0.50;;;6.50;85.90;;;;;;5026803;28;20045;-61
2022/11/21 00:15:07;;;;;;;0.77;0.50;;;6.60;85.80;;;;;;5034300;28;20045;-62
2022/11/21 00:17:33;;;;;;;1.05;0.70;;;6.60;85.70;;;;;;5036010;28;20473;-63
2022/11/21 00:19:59;;;;;;;0.43;0.38;;;6.60;85.90;;;;;;5033229;28;20060;-62
2022/11/21 00:22:24;;;;;;;1.08;0.50;;;6.60;85.80;;;;;;5035601;28;20405;-61
2022/11/21 00:24:50;;;;;;;0.52;0.50;;;6.60;86.00;;;;;;5034156;28;20049;-62
2022/11/21 00:27:15;;;;;;;0.40;0.40;;;6.60;85.80;;;;;;5036406;28;20045;-60
2022/11/21 00:29:41;;;;;;;0.40;0.40;;;6.60;85.70;;;;;;5033517;28;20509;-62
2022/11/21 00:32:07;;;;;;;0.40;0.40;;;6.60;85.80;;;;;;5033961;28;20553;-62
2022/11/21 00:34:32;;;;;;;1.13;0.45;;;6.60;85.80;;;;;;5033303;28;20122;-62
2022/11/21 00:36:58;;;;;;;0.68;0.40;;;6.60;85.70;;;;;;5030430;28;20094;-62
2022/11/21 00:39:23;;;;;;;0.75;0.50;;;6.70;85.80;;;;;;5032864;28;20052;-61
2022/11/21 00:41:49;;;;;;;2.40;0.60;;;6.60;85.80;;;;;;5031676;28;20472;-63
2022/11/21 00:44:14;;;;;;;0.60;0.60;;;6.60;85.80;;;;;;5029978;28;20037;-61
2022/11/21 00:46:40;;;;;;;0.70;0.50;;;6.70;85.90;;;;;;5031040;28;20041;-61
2022/11/21 00:49:05;;;;;;;0.77;0.60;;;6.60;85.80;;;;;;5038198;28;20033;-62
2022/11/21 00:51:31;;;;;;;0.63;0.50;;;6.70;85.90;;;;;;5035612;28;20065;-62
2022/11/21 00:53:56;;;;;;;0.98;0.60;;;6.70;85.90;;;;;;5035833;28;20421;-62
2022/11/21 00:56:22;;;;;;;0.80;0.57;;;6.70;85.90;;;;;;5036879;28;20443;-61
2022/11/21 00:58:48;;;;;;;0.93;0.60;;;6.70;86.00;;;;;;5035333;28;20041;-62
2022/11/21 01:01:14;;;;;;;0.80;0.60;;;6.70;86.00;;;;;;5036623;28;20119;-62
2022/11/21 01:03:40;;;;;;;1.35;0.75;;;6.70;86.00;;;;;;5033207;28;20045;-60
2022/11/21 01:06:08;;;;;;;0.43;0.43;;;6.70;86.00;;;;;;5033418;28;20028;-61
2022/11/21 01:08:35;;;;;;;0.75;0.57;;;6.70;85.90;;;;;;5032855;28;20079;-60
2022/11/21 01:11:03;;;;;;;0.63;0.55;;;6.70;85.80;;;;;;5032864;28;20041;-61
2022/11/21 01:13:29;;;;;;;0.90;0.60;;;6.80;85.90;;;;;;5030217;28;20504;-61
2022/11/21 01:15:54;;;;;;;1.35;0.60;;;6.80;85.70;;;;;;5035657;28;20048;-62
2022/11/21 01:18:20;;;;;;;0.95;0.68;;;6.80;85.60;;;;;;5032950;28;20512;-61
2022/11/21 01:20:45;;;;;;;0.50;0.50;;;6.80;85.60;;;;;;5031024;28;20036;-62
2022/11/21 01:23:11;;;;;;;0.65;0.40;;;6.80;85.40;;;;;;5032932;28;20017;-61
2022/11/21 01:25:36;;;;;;;1.90;0.60;;;6.80;85.30;;;;;;5034735;28;20064;-61
2022/11/21 01:28:02;;;;;;;1.05;0.60;;;6.80;85.20;;;;;;5033546;28;20124;-59
2022/11/21 01:30:28;;;;;;;0.50;0.45;;;6.80;85.20;;;;;;5031606;28;20049;-62
2022/11/21 01:32:53;;;;;;;2.10;0.80;;;6.80;85.20;;;;;;5030519;28;20508;-62
2022/11/21 01:35:19;;;;;;;1.42;0.63;;;6.70;85.20;;;;;;5030734;28;20033;-62
2022/11/21 01:37:48;;;;;;;0.93;0.63;;;6.80;85.20;;;;;;5031873;28;20029;-61
2022/11/21 01:40:14;;;;;;;0.80;0.50;;;6.80;85.30;;;;;;5032929;28;20420;-61
2022/11/21 01:43:13;;;;;;;1.13;0.70;;;6.70;85.10;;;;;;5028073;28;20142;-61
2022/11/21 01:46:04;;;;;;;1.50;0.50;;;6.80;85.30;;;;;;5020167;28;20654;-61
2022/11/21 01:48:50;;;;;;;2.00;0.80;;;6.70;85.30;;;;;;5029218;28;20182;-62
2022/11/21 01:51:23;;;;;;;2.22;0.60;;;6.70;85.20;;;;;;5030310;28;20489;-61
2022/11/21 01:54:00;;;;;;;1.55;0.60;;;6.70;85.00;;;;;;5030133;28;20052;-60
2022/11/21 01:56:27;;;;;;;1.70;0.70;;;6.70;85.10;;;;;;5035019;28;20626;-62
2022/11/21 01:58:58;;;;;;;3.28;0.50;;;6.70;85.10;;;;;;5032443;28;20041;-61
2022/11/21 02:01:23;;;;;;;1.67;0.60;;;6.70;85.20;;;;;;5036167;28;20035;-61
2022/11/21 02:03:50;;;;;;;2.30;0.70;;;6.70;85.20;;;;;;5032184;28;20033;-62
2022/11/21 02:06:16;;;;;;;1.17;0.55;;;6.70;85.30;;;;;;5031767;28;20572;-62
2022/11/21 02:08:43;;;;;;;1.23;0.47;;;6.70;85.20;;;;;;5033787;28;20171;-61
2022/11/21 02:11:36;;;;;;;0.93;0.50;;;6.70;85.20;;;;;;5031822;28;20036;-60
2022/11/21 02:14:02;;;;;;;0.47;0.30;;;6.70;85.40;;;;;;5029973;28;20564;-62
2022/11/21 02:16:28;;;;;;;0.85;0.47;;;6.70;85.20;;;;;;5032685;28;20039;-62
2022/11/21 02:18:54;;;;;;;0.45;0.40;;;6.70;85.20;;;;;;5032298;28;20096;-61
2022/11/21 02:21:38;;;;;;;1.83;0.38;;;6.80;85.20;;;;;;5028755;28;20436;-62
2022/11/21 02:24:14;;;;;;;0.93;0.30;;;6.80;85.30;;;;;;5033719;28;20515;-62
2022/11/21 02:26:40;;;;;;;1.17;0.43;;;6.80;85.10;;;;;;5035261;28;20065;-62
2022/11/21 02:29:06;;;;;;;1.15;0.40;;;6.80;85.00;;;;;;5033923;28;21050;-61
2022/11/21 02:31:32;;;;;;;0.60;0.20;;;6.80;85.10;;;;;;5034916;28;20034;-60
2022/11/21 02:33:57;;;;;;;0.60;0.40;;;6.80;85.00;;;;;;5030070;28;20567;-59
2022/11/21 02:36:41;;;;;;;0.80;0.43;;;6.80;85.00;;;;;;5029263;28;20086;-62
2022/11/21 02:39:12;;;;;;;0.50;0.40;;;6.80;85.10;;;;;;5029113;28;20037;-61
2022/11/21 02:41:44;;;;;;;1.92;0.45;;;6.90;85.00;;;;;;5031480;28;20120;-60
2022/11/21 02:44:34;;;;;;;0.70;0.30;;;6.80;84.90;;;;;;5030769;28;20128;-61
2022/11/21 02:46:59;;;;;;;1.20;0.60;;;6.80;85.00;;;;;;5029377;28;20094;-60
2022/11/21 02:49:33;;;;;;;0.88;0.50;;;6.90;85.00;;;;;;5033578;28;20045;-61
2022/11/21 02:51:59;;;;;;;0.77;0.50;;;6.90;85.00;;;;;;5032842;28;20120;-62
2022/11/21 02:54:24;;;;;;;0.70;0.40;;;6.90;85.00;;;;;;5036004;28;20056;-62
2022/11/21 02:56:50;;;;;;;1.23;0.60;;;6.90;85.00;;;;;;5035228;28;20080;-62
2022/11/21 02:59:15;;;;;;;2.55;0.70;;;6.90;85.10;;;;;;5032801;28;20508;-62
2022/11/21 03:01:41;;;;;;;2.03;0.70;;;6.90;85.20;;;;;;5038749;28;20056;-63
2022/11/21 03:04:07;;;;;;;1.45;0.68;;;6.90;85.20;;;;;;5036840;28;20084;-63
2022/11/21 03:06:32;;;;;;;2.78;0.98;;;6.90;85.30;;;;;;5034947;28;20071;-63
2022/11/21 03:08:58;;;;;;;2.05;0.55;;;6.90;85.50;;;;;;5037726;28;20404;-63
2022/11/21 03:11:23;;;;;;;2.92;0.80;;;6.90;85.70;;;;;;5035110;28;20120;-63
2022/11/21 03:13:49;;;;;;;3.88;0.57;;;6.90;85.90;;;;;;5036675;28;20030;-62
2022/11/21 03:16:14;;;;;;;1.17;0.60;;;6.90;85.70;;;;;;5038620;28;20091;-62
2022/11/21 03:18:40;;;;;;;4.72;0.80;;;6.90;85.70;;;;;;5036877;28;20048;-63
2022/11/21 03:21:05;;;;;;;3.35;0.65;;;6.90;85.80;;;;;;5036872;28;20041;-63
2022/11/21 03:23:31;;;;;;;1.63;0.57;;;6.80;85.70;;;;;;5036832;28;20037;-63
2022/11/21 03:25:58;;;;;;;2.05;0.57;;;6.80;85.70;;;;;;5038482;28;20116;-63
2022/11/21 03:28:23;;;;;;;2.65;0.55;;;6.70;85.70;;;;;;5037810;28;20041;-64
2022/11/21 03:30:49;;;;;;;3.25;0.55;;;6.70;85.80;;;;;;5038044;28;20047;-64
2022/11/21 03:33:14;;;;;;;3.38;0.65;;;6.60;85.80;;;;;;5038880;28;20460;-63
2022/11/21 03:35:40;;;;;;;2.28;0.50;;;6.60;86.00;;;;;;5038749;28;20091;-63
2022/11/21 03:38:05;;;;;;;1.02;0.40;;;6.50;86.00;;;;;;5038706;28;20036;-63
2022/11/21 03:40:31;;;;;;;1.55;0.50;;;6.50;86.00;;;;;;5037390;28;20029;-61
2022/11/21 03:43:01;;;;;;;2.78;0.60;;;6.50;87.00;;;;;;5037188;28;20041;-63
2022/11/21 03:45:27;;;;;;;1.85;0.63;;;6.50;86.20;;;;;;5036100;28;20064;-63
2022/11/21 03:47:53;;;;;;;2.90;0.60;;;6.50;86.30;;;;;;5037712;28;20505;-63
2022/11/21 03:50:19;;;;;;;3.80;0.60;;;6.40;86.20;;;;;;5037837;28;20029;-62
2022/11/21 03:52:45;;;;;;;1.45;0.50;;;6.40;86.30;;;;;;5037669;28;20047;-63
2022/11/21 03:55:10;;;;;;;2.60;0.65;;;6.50;86.50;;;;;;5038009;28;20029;-63
2022/11/21 03:57:37;;;;;;;4.75;0.98;;;6.40;86.30;;;;;;5036445;28;20128;-62
2022/11/21 04:00:03;;;;;;;2.33;0.57;;;6.40;86.30;;;;;;5037421;28;20041;-62
2022/11/21 04:02:29;;;;;;;50.38;24.95;;;6.50;86.40;;;;;;5036009;28;20509;-62
2022/11/21 04:04:54;;;;;;;32.47;20.63;;;6.50;86.40;;;;;;5036286;28;20048;-62
2022/11/21 04:07:20;;;;;;;7.75;4.85;;;6.40;86.50;;;;;;5035735;28;20120;-62
2022/11/21 04:09:45;;;;;;;3.95;2.13;;;6.50;86.60;;;;;;5036377;28;20578;-62
2022/11/21 04:12:11;;;;;;;13.82;7.82;;;6.50;86.60;;;;;;5031815;28;20052;-62
2022/11/21 04:14:36;;;;;;;8.68;6.22;;;6.50;86.60;;;;;;5034588;28;20429;-62
2022/11/21 04:17:02;;;;;;;4.90;3.20;;;6.50;86.70;;;;;;5037851;28;20102;-63
2022/11/21 04:19:27;;;;;;;1.40;1.00;;;6.50;86.80;;;;;;5034990;28;20127;-62
2022/11/21 04:21:53;;;;;;;3.38;1.92;;;6.50;86.90;;;;;;5033589;28;20064;-61
2022/11/21 04:24:19;;;;;;;2.53;1.30;;;6.60;87.00;;;;;;5034561;28;20029;-62
2022/11/21 04:26:44;;;;;;;2.20;0.70;;;6.60;87.20;;;;;;5035819;28;20113;-63
2022/11/21 04:29:10;;;;;;;1.50;0.93;;;6.50;87.10;;;;;;5036310;28;20065;-63
2022/11/21 04:31:35;;;;;;;1.30;0.70;;;6.50;87.10;;;;;;5033657;28;20516;-63
2022/11/21 04:34:01;;;;;;;2.60;0.77;;;6.60;87.30;;;;;;5032484;28;20033;-62
2022/11/21 04:36:26;;;;;;;1.38;0.60;;;6.60;87.50;;;;;;5032680;28;20045;-62
2022/11/21 04:38:52;;;;;;;1.52;0.60;;;6.50;87.70;;;;;;5031948;28;20041;-63
2022/11/21 04:41:18;;;;;;;1.30;1.20;;;6.60;87.80;;;;;;5033858;28;20112;-62
2022/11/21 04:43:43;;;;;;;0.85;0.70;;;6.60;87.90;;;;;;5030591;28;20057;-62
2022/11/21 04:46:09;;;;;;;1.52;0.70;;;6.60;88.10;;;;;;5034333;28;20397;-62
2022/11/21 04:48:34;;;;;;;2.13;0.73;;;6.60;88.10;;;;;;5033138;28;20416;-63
2022/11/21 04:51:00;;;;;;;0.70;0.50;;;6.60;88.10;;;;;;5033602;28;20044;-63
2022/11/21 04:53:25;;;;;;;1.38;0.60;;;6.60;88.10;;;;;;5033143;28;20037;-63
2022/11/21 04:55:51;;;;;;;1.85;0.43;;;6.60;88.20;;;;;;5033536;28;20641;-63
2022/11/21 04:58:16;;;;;;;3.10;0.50;;;6.60;87.90;;;;;;5034182;28;20722;-63
2022/11/21 05:00:42;;;;;;;1.52;0.50;;;6.50;87.70;;;;;;5035585;28;20087;-63
2022/11/21 05:03:07;;;;;;;0.75;0.50;;;6.60;87.80;;;;;;5034133;28;20029;-63
2022/11/21 05:05:33;;;;;;;2.58;0.50;;;6.50;87.80;;;;;;5033599;28;20060;-64
2022/11/21 05:07:59;;;;;;;0.30;0.30;;;6.50;87.90;;;;;;5034139;28;20051;-64
2022/11/21 05:10:25;;;;;;;0.40;0.30;;;6.50;87.80;;;;;;5034071;28;20034;-64
2022/11/21 05:15:44;;;;;;;3.10;0.30;;;6.50;87.90;;;;;;5032219;28;20597;-64
2022/11/21 05:18:09;;;;;;;0.63;0.25;;;6.50;87.50;;;;;;5032459;28;20058;-64
2022/11/21 05:20:35;;;;;;;0.47;0.20;;;6.40;87.20;;;;;;5031912;28;20104;-64
2022/11/21 05:23:00;;;;;;;1.95;0.20;;;6.40;87.00;;;;;;5033166;28;20033;-63
2022/11/21 05:25:26;;;;;;;0.70;0.30;;;6.40;86.70;;;;;;5036299;28;20033;-64
2022/11/21 05:27:55;;;;;;;0.10;0.10;;;6.30;86.60;;;;;;5037333;28;20413;-64
2022/11/21 05:30:21;;;;;;;0.30;0.10;;;6.30;86.60;;;;;;5036182;28;20110;-63
2022/11/21 05:32:47;;;;;;;0.10;0.10;;;6.20;86.60;;;;;;5035006;28;20429;-63
2022/11/21 05:35:12;;;;;;;0.30;0.20;;;6.20;86.70;;;;;;5035566;28;20033;-63
2022/11/21 05:37:38;;;;;;;0.75;0.25;;;6.10;86.80;;;;;;5035151;28;20374;-63
2022/11/21 05:40:04;;;;;;;1.35;0.28;;;6.10;86.90;;;;;;5035588;28;20049;-63
2022/11/21 05:45:13;;;;;;;0.63;0.20;;;6.10;87.30;;;;;;5034931;28;20565;-63
2022/11/21 05:47:41;;;;;;;0.63;0.35;;;6.10;87.50;;;;;;5036422;28;20124;-63
2022/11/21 05:50:07;;;;;;;0.28;0.20;;;6.00;87.70;;;;;;5035602;28;20120;-63
2022/11/21 05:52:32;;;;;;;1.77;0.40;;;6.10;88.00;;;;;;5033960;28;20124;-63
2022/11/21 05:54:58;;;;;;;1.17;0.60;;;6.10;88.00;;;;;;5034056;28;20053;-63
2022/11/21 05:57:23;;;;;;;2.15;0.47;;;6.10;88.20;;;;;;5036305;28;20046;-63
2022/11/21 05:59:49;;;;;;;0.50;0.32;;;6.10;88.20;;;;;;5036718;28;20124;-64
2022/11/21 06:04:59;;;;;;;1.05;0.43;;;6.20;88.20;;;;;;5034588;28;20120;-63
2022/11/21 06:07:24;;;;;;;0.47;0.20;;;6.10;88.00;;;;;;5036108;28;20116;-63
2022/11/21 06:09:50;;;;;;;0.55;0.20;;;6.20;87.90;;;;;;5037039;28;20041;-63
2022/11/21 06:12:16;;;;;;;0.20;0.20;;;6.20;88.00;;;;;;5040043;28;20037;-63
2022/11/21 06:14:41;;;;;;;1.15;0.10;;;6.20;88.00;;;;;;5037101;28;20118;-63
2022/11/21 06:17:07;;;;;;;0.60;0.20;;;6.20;88.00;;;;;;5036445;28;20033;-63
2022/11/21 06:19:32;;;;;;;1.65;0.30;;;6.10;88.00;;;;;;5037131;28;20143;-63
2022/11/21 06:21:58;;;;;;;3.05;0.32;;;6.10;88.10;;;;;;5036591;28;20048;-63
2022/11/21 06:24:23;;;;;;;2.30;0.20;;;6.10;88.20;;;;;;5040464;28;20037;-63
2022/11/21 06:26:49;;;;;;;0.40;0.13;;;6.10;88.10;;;;;;5039058;28;20045;-63
2022/11/21 06:29:15;;;;;;;0.80;0.22;;;6.10;87.90;;;;;;5039645;28;20036;-63
2022/11/21 06:31:41;;;;;;;0.10;0.10;;;6.10;87.60;;;;;;5039536;28;20052;-62
2022/11/21 06:34:06;;;;;;;0.10;0.10;;;6.10;87.60;;;;;;5037514;28;20531;-63
2022/11/21 06:36:32;;;;;;;0.65;0.30;;;6.10;87.70;;;;;;5038513;28;20041;-62
2022/11/21 06:38:58;;;;;;;1.20;0.50;;;6.10;87.70;;;;;;5039898;28;20043;-62
2022/11/21 06:41:29;;;;;;;1.17;0.80;;;6.10;87.70;;;;;;5039917;28;20099;-62
2022/11/21 06:43:58;;;;;;;1.20;0.90;;;6.10;87.80;;;;;;5039468;28;20065;-62
2022/11/21 06:46:24;;;;;;;0.73;0.73;;;6.10;87.80;;;;;;5036651;28;20044;-62
2022/11/21 06:48:49;;;;;;;0.63;0.50;;;6.20;87.80;;;;;;5038405;28;20465;-62
2022/11/21 06:51:24;;;;;;;1.23;0.45;;;6.20;87.80;;;;;;5039538;28;20484;-61
2022/11/21 06:53:57;;;;;;;2.00;0.40;;;6.20;88.00;;;;;;5037189;28;20039;-61
2022/11/21 06:56:25;;;;;;;1.27;0.80;;;6.20;88.00;;;;;;5038017;28;20034;-62
2022/11/21 06:58:50;;;;;;;2.00;1.10;;;6.20;88.00;;;;;;5039333;28;20120;-62
2022/11/21 07:01:16;;;;;;;1.15;1.05;;;6.20;87.90;;;;;;5039222;28;20103;-62
2022/11/21 07:03:42;;;;;;;1.58;0.60;;;6.20;87.90;;;;;;5036737;28;20039;-62
2022/11/21 07:06:07;;;;;;;1.10;0.90;;;6.30;87.90;;;;;;5038830;28;20056;-61
2022/11/21 07:08:35;;;;;;;1.38;1.27;;;6.30;87.70;;;;;;5039913;28;20049;-62
2022/11/21 07:11:02;;;;;;;1.85;1.20;;;6.30;87.60;;;;;;5034848;28;20040;-61
2022/11/21 07:13:28;;;;;;;1.40;0.82;;;6.30;87.50;;;;;;5037452;28;20566;-62
2022/11/21 07:15:59;;;;;;;1.25;0.60;;;6.20;87.60;;;;;;5038587;28;20153;-61
2022/11/21 07:18:25;;;;;;;4.00;1.00;;;6.30;87.70;;;;;;5038326;28;20033;-60
2022/11/21 07:20:51;;;;;;;1.13;0.65;;;6.30;87.70;;;;;;5037134;28;20036;-62
2022/11/21 07:23:16;;;;;;;2.42;1.20;;;6.30;87.80;;;;;;5038268;28;20033;-61
2022/11/21 07:25:43;;;;;;;3.65;0.70;;;6.30;87.90;;;;;;5038623;28;20040;-62
2022/11/21 07:28:09;;;;;;;2.22;0.80;;;6.30;87.90;;;;;;5039114;28;20120;-60
2022/11/21 07:30:37;;;;;;;1.45;0.80;;;6.30;87.90;;;;;;5038917;28;20025;-62
2022/11/21 07:33:08;;;;;;;1.65;0.80;;;6.30;87.90;;;;;;5037110;28;20642;-62
2022/11/21 07:35:34;;;;;;;2.28;1.08;;;6.30;88.00;;;;;;5037234;28;20052;-61
2022/11/21 07:38:00;;;;;;;1.52;0.90;;;6.30;88.00;;;;;;5038576;28;20029;-60
2022/11/21 07:40:26;;;;;;;2.53;1.50;;;6.30;88.10;;;;;;5037593;28;20033;-62
2022/11/21 07:42:52;;;;;;;2.17;1.00;;;6.40;88.20;;;;;;5038144;28;20041;-62
2022/11/21 07:45:18;;;;;;;1.15;0.70;;;6.40;88.20;;;;;;5038197;28;20042;-61
2022/11/21 07:47:44;;;;;;;2.05;1.08;;;6.50;88.20;;;;;;5038453;28;20059;-62
2022/11/21 07:50:10;;;;;;;1.48;0.93;;;6.50;88.30;;;;;;5037194;28;20124;-60
2022/11/21 07:52:37;;;;;;;2.03;0.90;;;6.50;88.40;;;;;;5036134;28;20550;-61
2022/11/21 07:55:04;;;;;;;3.42;0.70;;;6.50;88.40;;;;;;5038474;28;20033;-61
2022/11/21 07:57:31;;;;;;;1.13;0.32;;;6.60;88.50;;;;;;5038775;28;20040;-62
2022/11/21 07:59:57;;;;;;;1.95;0.40;;;6.60;88.40;;;;;;5037183;28;20484;-61
2022/11/21 08:02:24;;;;;;;2.03;0.70;;;6.60;88.20;;;;;;5037018;28;20045;-62
2022/11/21 08:04:50;;;;;;;1.00;0.50;;;6.70;88.30;;;;;;5037234;28;20037;-62
2022/11/21 08:07:18;;;;;;;1.67;0.68;;;6.70;88.30;;;;;;5036364;28;20048;-62
2022/11/21 08:09:44;;;;;;;3.30;0.88;;;6.70;88.30;;;;;;5037128;28;20036;-59
2022/11/21 08:12:10;;;;;;;1.65;0.38;;;6.70;88.30;;;;;;5032773;28;20033;-62
2022/11/21 08:14:36;;;;;;;1.38;0.70;;;6.70;88.30;;;;;;5037378;28;20563;-62
2022/11/21 08:17:03;;;;;;;3.13;0.60;;;6.70;88.30;;;;;;5037335;28;20120;-60
2022/11/21 08:19:29;;;;;;;2.95;0.65;;;6.80;88.30;;;;;;5036568;28;20037;-61
2022/11/21 08:24:30;;;;;;;3.33;1.40;;;6.80;88.30;;;;;;5766620;22;20083;-61
2022/11/21 08:26:57;;;;;;;1.58;0.90;;;6.80;88.30;;;;;;5035277;28;20324;-60
2022/11/21 08:29:23;;;;;;;2.35;1.10;;;6.90;88.30;;;;;;5037968;28;20090;-60
2022/11/21 08:31:48;;;;;;;2.20;0.90;;;6.90;88.30;;;;;;5037368;28;20108;-61
2022/11/21 08:34:14;;;;;;;3.33;0.90;;;6.90;88.30;;;;;;5036467;28;20030;-62
2022/11/21 08:36:39;;;;;;;3.53;1.00;;;6.90;88.20;;;;;;5036704;28;20044;-61
2022/11/21 08:39:05;;;;;;;3.50;1.00;;;7.00;88.10;;;;;;5037731;28;20269;-60
2022/11/21 08:44:15;;;;;;;1.37;0.77;;;7.10;88.10;;;;;;5035952;28;20068;-62
2022/11/21 08:46:40;;;;;;;2.28;0.80;;;7.10;88.00;;;;;;5035793;28;20795;-62
2022/11/21 08:49:07;;;;;;;3.70;0.68;;;7.20;88.10;;;;;;5037139;28;20064;-61
2022/11/21 08:51:33;;;;;;;1.25;0.60;;;7.20;88.00;;;;;;5035675;28;20025;-60
2022/11/21 08:53:59;;;;;;;1.75;0.90;;;7.20;87.90;;;;;;5036550;28;20050;-61
2022/11/21 08:56:25;;;;;;;0.50;0.50;;;7.30;87.90;;;;;;5036769;28;20041;-59
2022/11/21 08:58:51;;;;;;;1.02;0.47;;;7.30;87.80;;;;;;5037170;28;20041;-61
2022/11/21 09:01:17;;;;;;;3.67;0.70;;;7.40;87.70;;;;;;5034327;28;20095;-61
2022/11/21 09:03:42;;;;;;;2.13;0.70;;;7.40;87.70;;;;;;5035578;28;20049;-61
2022/11/21 09:06:08;;;;;;;1.92;0.57;;;7.50;87.80;;;;;;5037142;28;20068;-60
2022/11/21 09:08:34;;;;;;;1.52;0.70;;;7.50;87.80;;;;;;5037744;28;20112;-62
2022/11/21 09:11:04;;;;;;;1.50;0.52;;;7.50;87.80;;;;;;5037934;28;20416;-59
2022/11/21 09:13:30;;;;;;;1.92;0.60;;;7.60;87.70;;;;;;5036273;28;20041;-60
2022/11/21 09:18:42;;;;;;;2.25;0.60;;;7.70;87.80;;;;;;5035272;28;20127;-60
2022/11/21 09:21:08;;;;;;;4.55;0.70;;;7.70;87.80;;;;;;5036739;28;20120;-61
2022/11/21 09:23:33;;;;;;;3.20;0.60;;;7.80;87.80;;;;;;5036320;28;20029;-59
2022/11/21 09:26:00;;;;;;;1.77;0.50;;;7.80;87.50;;;;;;5037195;28;20060;-60
2022/11/21 09:28:26;;;;;;;4.95;0.63;;;7.90;87.30;;;;;;5037128;28;20484;-60
2022/11/21 09:30:51;;;;;;;1.80;0.50;;;7.90;87.10;;;;;;5036866;28;20054;-61
2022/11/21 09:33:17;;;;;;;1.15;0.60;;;8.00;87.00;;;;;;5037380;28;20036;-61
2022/11/21 09:35:43;;;;;;;2.30;0.73;;;8.00;86.90;;;;;;5035963;28;20460;-61
2022/11/21 09:38:08;;;;;;;2.58;0.52;;;8.10;86.60;;;;;;5037098;28;20108;-61
2022/11/21 09:40:35;;;;;;;0.77;0.40;;;8.10;86.40;;;;;;5036419;28;20041;-61
2022/11/21 09:43:38;;;;;;;2.38;0.50;;;8.10;86.20;;;;;;5037092;28;20054;-62
2022/11/21 09:46:35;;;;;;;1.17;0.40;;;8.10;85.90;;;;;;5036823;28;20036;-62
2022/11/21 09:49:06;;;;;;;2.22;0.70;;;8.20;85.60;;;;;;5035363;28;21972;-62
2022/11/21 09:51:36;;;;;;;1.67;0.60;;;8.20;85.00;;;;;;5036724;28;20108;-61
2022/11/21 09:54:31;;;;;;;2.22;0.80;;;8.20;85.00;;;;;;5035802;28;20439;-61
2022/11/21 09:56:56;;;;;;;2.90;0.60;;;8.20;84.80;;;;;;5035537;28;21081;-60
2022/11/21 09:59:35;;;;;;;1.23;0.55;;;8.30;84.60;;;;;;5037536;28;20037;-62
2022/11/21 10:02:09;;;;;;;3.05;0.60;;;8.30;84.00;;;;;;5036969;28;20120;-60
2022/11/21 10:04:34;;;;;;;2.65;0.60;;;8.30;85.00;;;;;;5034766;28;20073;-60
2022/11/21 10:07:20;;;;;;;3.63;0.60;;;8.30;84.50;;;;;;5037434;28;20119;-61
2022/11/21 10:10:13;;;;;;;4.03;0.90;;;8.40;83.60;;;;;;5036871;28;20067;-61
2022/11/21 10:13:06;;;;;;;4.00;0.70;;;8.40;83.80;;;;;;5032827;28;20112;-59
2022/11/21 10:15:43;;;;;;;2.03;0.80;;;8.40;83.00;;;;;;5037262;28;20408;-60
2022/11/21 10:18:37;;;;;;;3.10;0.90;;;8.40;83.70;;;;;;5037389;28;20320;-62
2022/11/21 10:21:14;;;;;;;2.00;0.73;;;8.50;83.10;;;;;;5035754;28;20087;-61
2022/11/21 10:23:58;;;;;;;2.83;0.85;;;8.50;83.20;;;;;;5035839;28;20036;-60
2022/11/21 10:26:42;;;;;;;2.70;0.60;;;8.60;82.90;;;;;;5035367;28;20132;-61
2022/11/21 10:29:17;;;;;;;4.97;1.33;;;8.60;82.60;;;;;;5036025;28;20030;-61
2022/11/21 10:31:44;;;;;;;4.15;2.20;;;8.70;82.90;;;;;;5035275;28;22459;-60
2022/11/21 10:34:13;;;;;;;6.75;1.23;;;8.70;82.80;;;;;;5036604;28;20030;-61
2022/11/21 10:36:44;;;;;;;5.75;2.10;;;8.70;81.70;;;;;;5034375;28;20122;-60
2022/11/21 10:39:22;;;;;;;3.10;1.30;;;8.70;81.90;;;;;;5037716;28;20055;-60
2022/11/21 10:42:04;;;;;;;2.67;1.20;;;8.80;82.20;;;;;;5035788;28;20037;-61
2022/11/21 10:47:36;;;;;;;3.07;0.60;;;8.90;81.90;;;;;;5036291;28;20076;-59
2022/11/21 10:50:07;;;;;;;2.92;0.50;;;9.00;80.90;;;;;;5018856;28;20288;-60
2022/11/21 10:52:38;;;;;;;1.95;0.68;;;9.10;82.20;;;;;;5036546;28;20048;-62
2022/11/21 10:55:04;;;;;;;1.25;0.52;;;9.10;81.70;;;;;;5036093;28;20447;-62
2022/11/21 10:57:49;;;;;;;1.33;0.65;;;9.20;81.90;;;;;;5035488;28;20037;-61
2022/11/21 11:00:21;;;;;;;3.35;0.50;;;9.20;81.70;;;;;;5036150;28;20103;-60
2022/11/21 11:02:55;;;;;;;2.67;0.63;;;9.30;82.00;;;;;;5035329;28;20511;-59
2022/11/21 11:05:23;;;;;;;2.28;0.90;;;9.40;81.20;;;;;;5035718;28;20068;-60
2022/11/21 11:08:13;;;;;;;4.15;1.00;;;9.40;81.60;;;;;;5036577;28;20401;-61
2022/11/21 11:10:39;;;;;;;4.30;0.85;;;9.50;80.40;;;;;;5039981;28;20060;-62
2022/11/21 11:13:32;;;;;;;3.72;0.57;;;9.50;80.60;;;;;;5037736;28;20034;-61
2022/11/21 11:16:15;;;;;;;3.10;0.82;;;9.50;80.00;;;;;;5040387;28;20434;-61
2022/11/21 11:18:57;;;;;;;3.47;0.70;;;9.60;80.30;;;;;;5039558;28;20063;-61
2022/11/21 11:21:28;;;;;;;2.42;0.60;;;9.60;80.10;;;;;;5040056;28;20658;-61
2022/11/21 11:24:06;;;;;;;1.70;0.60;;;9.60;79.80;;;;;;5039632;28;20033;-61
2022/11/21 11:26:31;;;;;;;3.17;0.50;;;9.60;79.30;;;;;;5039009;28;20400;-60
2022/11/21 11:29:18;;;;;;;2.28;0.70;;;9.60;79.60;;;;;;5038589;28;20034;-61
2022/11/21 11:32:11;;;;;;;2.33;0.70;;;9.70;79.00;;;;;;5039380;28;20029;-61
2022/11/21 11:34:40;;;;;;;2.28;0.60;;;9.70;78.90;;;;;;5038837;28;20079;-61
2022/11/21 11:37:47;;;;;;;5.00;0.88;;;9.70;79.70;;;;;;5039139;28;20276;-61
2022/11/21 11:40:25;;;;;;;2.20;0.77;;;9.70;78.90;;;;;;5038734;28;20427;-61
2022/11/21 11:49:31;;;;;;;3.70;0.70;;;9.80;78.60;;;;;;5038045;28;20040;-61
2022/11/21 11:52:02;;;;;;;3.92;0.85;;;9.80;77.80;;;;;;5024850;28;20036;-61
2022/11/21 11:54:49;;;;;;;1.08;0.50;;;9.90;78.40;;;;;;5038867;28;20358;-60
2022/11/21 11:57:16;;;;;;;2.75;0.80;;;9.90;76.80;;;;;;5040080;28;20424;-62
2022/11/21 11:59:57;;;;;;;4.05;0.65;;;9.90;77.30;;;;;;5038891;28;20045;-61
2022/11/21 12:02:42;;;;;;;3.33;0.80;;;9.90;77.30;;;;;;5038786;28;20033;-61
2022/11/21 12:05:13;;;;;;;;;;;9.90;77.00;;;;;;5037141;28;20037;-61
2022/11/21 12:07:45;;;;;;;3.42;0.70;;;10.00;75.80;;;;;;5037174;28;19999;-61
2022/11/21 12:10:14;;;;;;;4.15;0.90;;;10.00;77.20;;;;;;5038919;28;20373;-59
2022/11/21 12:12:43;;;;;;;3.20;0.80;;;10.00;77.30;;;;;;5037107;28;20034;-62
2022/11/21 12:15:49;;;;;;;2.95;0.80;;;10.00;77.00;;;;;;5037664;28;20123;-61
2022/11/21 12:18:30;;;;;;;3.25;0.70;;;10.00;75.30;;;;;;5039349;28;20261;-62
2022/11/21 12:21:08;;;;;;;4.85;0.90;;;10.00;75.30;;;;;;5036359;28;20044;-62
2022/11/21 12:23:57;;;;;;;3.35;0.80;;;10.10;75.40;;;;;;5038009;28;20022;-62
2022/11/21 12:27:01;;;;;;;3.35;0.95;;;10.10;74.60;;;;;;5037125;28;20037;-62
2022/11/21 12:29:45;;;;;;;3.50;0.60;;;10.10;74.30;;;;;;5016921;28;20095;-61
2022/11/21 12:32:32;;;;;;;3.20;0.80;;;10.10;73.70;;;;;;5038812;28;20033;-61
2022/11/21 12:35:24;;;;;;;3.25;0.80;;;10.00;74.20;;;;;;5038089;28;20355;-61
2022/11/21 12:38:18;;;;;;;2.03;0.80;;;10.00;73.70;;;;;;5039021;28;20036;-60
2022/11/21 12:40:54;;;;;;;3.45;0.88;;;10.00;74.00;;;;;;5038552;28;20042;-61
2022/11/21 12:43:45;;;;;;;2.50;0.80;;;10.00;75.60;;;;;;5038700;28;20029;-60
2022/11/21 12:46:58;;;;;;;4.25;0.70;;;10.00;73.70;;;;;;5038794;28;20022;-60
2022/11/21 12:55:23;;;;;;;2.00;0.68;;;10.00;73.70;;;;;;5038029;28;20052;-60
2022/11/21 12:58:15;;;;;;;3.75;0.77;;;10.00;74.30;;;;;;5037694;28;20594;-61
2022/11/21 13:01:01;;;;;;;4.18;0.88;;;10.10;73.70;;;;;;5037619;28;20079;-62
2022/11/21 13:03:42;;;;;;;2.53;0.60;;;10.00;73.40;;;;;;5035416;28;20492;-61
2022/11/21 13:06:24;;;;;;;3.40;0.60;;;10.10;73.20;;;;;;5038892;28;20148;-60
2022/11/21 13:08:53;;;;;;;1.63;0.80;;;10.10;73.50;;;;;;5037888;28;20037;-58
2022/11/21 13:14:44;;;;;;;2.70;0.80;;;10.10;73.90;;;;;;5038201;28;20460;-61
2022/11/21 13:17:19;;;;;;;4.05;0.80;;;10.20;72.20;;;;;;5036853;28;20172;-60
2022/11/21 13:19:47;;;;;;;1.85;0.70;;;10.20;72.40;;;;;;5036985;28;20116;-62
2022/11/21 13:22:34;;;;;;;2.67;0.63;;;10.20;72.10;;;;;;5037275;28;20090;-61
2022/11/21 13:25:03;;;;;;;4.53;0.85;;;10.20;70.20;;;;;;5037180;28;20500;-61
2022/11/21 13:27:29;;;;;;;2.60;0.80;;;10.20;71.80;;;;;;5038135;28;20037;-62
2022/11/21 13:30:06;;;;;;;5.50;0.60;;;10.10;72.50;;;;;;5035967;28;20037;-60
2022/11/21 13:32:39;;;;;;;5.68;0.80;;;10.20;72.10;;;;;;5036871;28;20049;-61
2022/11/21 13:35:13;;;;;;;1.88;0.70;;;10.20;73.20;;;;;;5037764;28;20063;-61
2022/11/21 13:37:48;;;;;;;3.10;0.90;;;10.20;71.80;;;;;;5035429;28;20038;-61
2022/11/21 13:40:25;;;;;;;3.47;0.70;;;10.30;72.30;;;;;;5037544;28;20056;-60
2022/11/21 13:43:18;;;;;;;5.47;0.93;;;10.30;71.60;;;;;;5036961;28;20047;-61
2022/11/21 13:45:48;;;;;;;2.65;0.82;;;10.30;70.70;;;;;;5037013;28;20801;-60